Time;durP1;ratioP1;P1;durP2;ratioP2;P2;SDS_P1;SDS_P2;PMS_P1;PMS_P2;Temp;Humidity;BMP_temperature;BMP_pressure;BME280_temperature;BME280_humidity;BME280_pressure;Samples;Min_cycle;Max_cycle;Signal;HPM_P1;HPM_P2
2021/07/23 00:01:47;;;;;;;14.10;4.60;;;;;;;15.02;64.26;99101.97;5091645;28;20130;-64
2021/07/23 00:04:13;;;;;;;8.95;4.28;;;;;;;14.86;64.69;99096.66;5090322;28;20408;-64
2021/07/23 00:06:38;;;;;;;12.73;5.13;;;;;;;14.84;64.82;99098.50;5090810;28;20040;-65
2021/07/23 00:09:04;;;;;;;9.40;4.65;;;;;;;14.77;65.53;99102.38;5090294;28;20488;-64
2021/07/23 00:11:30;;;;;;;7.28;4.53;;;;;;;14.72;65.42;99099.13;5091652;28;20055;-66
2021/07/23 00:13:56;;;;;;;11.05;4.80;;;;;;;14.63;65.48;99095.19;5089953;28;20071;-66
2021/07/23 00:16:22;;;;;;;11.57;4.45;;;;;;;14.68;65.90;99102.84;5092349;28;20063;-65
2021/07/23 00:18:47;;;;;;;7.55;4.32;;;;;;;14.68;65.93;99110.75;5092036;28;20078;-65
2021/07/23 00:21:13;;;;;;;13.38;4.50;;;;;;;14.68;65.95;99108.13;5090836;28;20040;-63
2021/07/23 00:23:39;;;;;;;7.65;4.40;;;;;;;14.73;65.66;99107.88;5089099;28;20044;-63
2021/07/23 00:26:12;;;;;;;10.65;3.83;;;;;;;14.73;65.47;99100.84;5089889;28;20493;-65
2021/07/23 00:28:39;;;;;;;8.10;4.20;;;;;;;14.69;65.37;99107.19;5073089;28;20114;-65
2021/07/23 00:31:04;;;;;;;4.25;3.30;;;;;;;14.61;65.39;99097.06;5039388;28;20042;-64
2021/07/23 00:33:30;;;;;;;7.63;3.80;;;;;;;14.61;66.46;99106.72;5090889;28;20417;-63
2021/07/23 00:35:56;;;;;;;4.63;3.88;;;;;;;14.46;66.47;99086.44;5038746;28;20046;-63
2021/07/23 00:38:22;;;;;;;11.63;4.82;;;;;;;14.57;66.68;99107.81;5090292;28;20575;-66
2021/07/23 00:40:48;;;;;;;8.30;4.10;;;;;;;14.55;67.48;99107.03;5089703;28;20051;-67
2021/07/23 00:43:14;;;;;;;10.50;4.35;;;;;;;14.48;67.50;99103.00;5089361;28;20040;-65
2021/07/23 00:45:40;;;;;;;11.88;4.00;;;;;;;14.41;67.89;99097.19;5090002;28;20487;-65
2021/07/23 00:48:06;;;;;;;9.25;3.80;;;;;;;14.45;67.59;99105.81;5087798;28;20052;-64
2021/07/23 00:50:33;;;;;;;14.23;3.88;;;;;;;14.46;67.67;99096.97;5072364;28;20048;-64
2021/07/23 00:52:59;;;;;;;12.68;3.50;;;;;;;14.37;67.52;99086.88;5089243;28;20386;-66
2021/07/23 00:55:25;;;;;;;11.10;3.17;;;;;;;14.44;66.99;99096.19;5056267;28;20046;-64
2021/07/23 00:57:54;;;;;;;7.50;3.20;;;;;;;14.32;67.19;99082.72;5090213;28;20075;-65
2021/07/23 01:00:21;;;;;;;4.53;3.35;;;;;;;14.40;67.07;99102.50;5071542;28;20072;-65
2021/07/23 01:02:58;;;;;;;7.38;3.60;;;;;;;14.34;67.60;99097.56;5057709;28;20445;-64
2021/07/23 01:05:25;;;;;;;5.13;3.13;;;;;;;14.27;67.96;99092.59;5090419;28;20063;-65
2021/07/23 01:07:51;;;;;;;4.90;3.20;;;;;;;14.23;68.17;99091.06;5090774;28;20044;-65
2021/07/23 01:10:17;;;;;;;7.15;3.40;;;;;;;14.18;68.19;99086.94;5091291;28;20378;-64
2021/07/23 01:13:11;;;;;;;7.38;3.22;;;;;;;14.19;68.34;99081.63;5089747;28;20047;-64
2021/07/23 01:15:37;;;;;;;7.78;2.80;;;;;;;14.25;67.47;99083.94;5072415;28;20040;-64
2021/07/23 01:18:04;;;;;;;8.90;3.05;;;;;;;14.30;67.53;99095.09;5055727;28;20497;-67
2021/07/23 01:20:30;;;;;;;7.85;3.10;;;;;;;14.22;67.82;99091.97;5054552;28;20040;-65
2021/07/23 01:23:00;;;;;;;5.13;3.33;;;;;;;14.12;68.29;99069.69;5089371;28;20089;-64
2021/07/23 01:25:28;;;;;;;3.85;2.80;;;;;;;14.24;68.13;99084.88;5072351;28;20123;-67
2021/07/23 01:27:54;;;;;;;8.10;3.35;;;;;;;14.08;68.38;99073.38;5087403;28;20086;-65
2021/07/23 01:30:41;;;;;;;6.70;3.28;;;;;;;14.10;68.75;99078.56;5089242;28;20063;-66
2021/07/23 01:33:14;;;;;;;10.07;3.15;;;;;;;13.96;68.62;99064.31;5087180;28;20496;-65
2021/07/23 01:35:42;;;;;;;5.68;2.97;;;;;;;13.83;69.36;99064.97;5088298;28;20123;-67
2021/07/23 01:38:09;;;;;;;12.07;3.20;;;;;;;13.88;69.33;99057.72;5089307;28;20129;-66
2021/07/23 01:40:35;;;;;;;7.95;2.63;;;;;;;13.80;69.12;99062.50;5071706;28;20036;-65
2021/07/23 01:43:01;;;;;;;8.95;3.65;;;;;;;13.84;69.34;99079.81;5089022;28;20100;-65
2021/07/23 01:45:27;;;;;;;10.15;2.95;;;;;;;13.82;69.59;99073.78;5087224;28;20515;-65
2021/07/23 01:48:11;;;;;;;4.22;2.97;;;;;;;13.72;69.75;99049.72;5088026;28;20052;-67
2021/07/23 01:50:38;;;;;;;5.32;2.80;;;;;;;13.73;69.67;99047.94;5087572;28;20080;-65
2021/07/23 01:53:06;;;;;;;7.85;2.70;;;;;;;13.85;69.58;99069.22;5094152;28;20130;-64
2021/07/23 01:55:46;;;;;;;8.52;2.65;;;;;;;13.82;69.47;99073.78;5077665;28;20079;-67
2021/07/23 01:58:12;;;;;;;5.82;2.90;;;;;;;13.88;69.28;99070.88;5093556;28;20074;-67
2021/07/23 02:00:38;;;;;;;11.80;2.95;;;;;;;13.87;69.46;99069.16;5091935;28;20040;-65
2021/07/23 02:03:08;;;;;;;21.55;2.88;;;;;;;13.92;69.57;99062.75;5093045;28;20062;-66
2021/07/23 02:05:34;;;;;;;9.27;2.83;;;;;;;14.00;69.10;99057.13;5091719;28;20456;-65
2021/07/23 02:08:01;;;;;;;5.30;2.72;;;;;;;14.03;69.10;99056.13;5093683;28;20504;-64
2021/07/23 02:10:28;;;;;;;5.07;2.35;;;;;;;14.10;68.67;99050.47;5058784;28;20101;-65
2021/07/23 02:12:56;;;;;;;6.47;2.45;;;;;;;14.21;67.96;99045.56;5092695;28;20044;-65
2021/07/23 02:15:26;;;;;;;6.13;2.50;;;;;;;14.27;67.29;99044.41;5075630;28;20126;-65
2021/07/23 02:17:54;;;;;;;6.47;2.60;;;;;;;14.45;67.06;99048.75;5092414;28;20409;-66
2021/07/23 02:20:24;;;;;;;5.13;2.60;;;;;;;14.55;66.62;99044.72;5059026;28;20043;-66
2021/07/23 02:22:50;;;;;;;8.10;2.75;;;;;;;14.60;66.01;99033.97;5058512;28;20339;-66
2021/07/23 02:25:25;;;;;;;6.32;2.78;;;;;;;15.12;64.53;99033.88;5093452;28;20054;-65
2021/07/23 02:27:50;;;;;;;11.00;3.72;;;;;;;15.80;61.90;99026.59;5092594;28;20482;-66
2021/07/23 02:30:16;;;;;;;7.80;2.25;;;;;;;16.51;59.46;99055.88;5092600;28;20515;-66
2021/07/23 02:32:49;;;;;;;7.38;2.42;;;;;;;17.03;57.38;99036.91;5075089;28;20136;-65
2021/07/23 02:35:17;;;;;;;9.20;2.47;;;;;;;17.56;55.85;99048.56;5090444;28;20036;-68
2021/07/23 02:37:53;;;;;;;13.73;2.50;;;;;;;18.11;53.96;99032.66;5092488;28;20052;-66
2021/07/23 02:40:22;;;;;;;4.72;2.17;;;;;;;18.81;51.82;99050.94;5091138;28;20066;-65
2021/07/23 02:42:56;;;;;;;5.18;2.20;;;;;;;19.14;50.66;99043.25;5074841;28;20044;-65
2021/07/23 02:45:23;;;;;;;8.15;2.45;;;;;;;19.58;49.17;99039.31;5074475;28;20040;-67
2021/07/23 02:47:50;;;;;;;8.10;2.28;;;;;;;20.08;47.83;99040.91;5091405;28;20052;-69
2021/07/23 02:50:19;;;;;;;4.05;2.38;;;;;;;20.31;46.87;99023.25;5091956;28;20058;-66
2021/07/23 02:52:48;;;;;;;8.45;2.08;;;;;;;20.67;46.14;99040.03;5057326;28;20046;-67
2021/07/23 02:55:16;;;;;;;10.02;2.75;;;;;;;20.62;46.08;99049.22;5091270;28;20129;-65
2021/07/23 02:57:42;;;;;;;3.75;2.13;;;;;;;20.96;45.40;99046.63;5057997;28;20090;-66
2021/07/23 03:00:10;;;;;;;8.95;2.30;;;;;;;21.43;44.38;99048.22;5074410;28;20044;-65
2021/07/23 03:02:40;;;;;;;4.10;2.60;;;;;;;21.73;43.64;99026.31;5057383;28;20526;-67
2021/07/23 03:05:06;;;;;;;5.13;4.40;;;;;;;21.78;43.30;99033.91;5092423;28;20083;-66
2021/07/23 03:07:32;;;;;;;9.32;2.10;;;;;;;22.41;42.13;99037.59;5092033;28;20047;-66
2021/07/23 03:09:59;;;;;;;6.63;2.53;;;;;;;22.80;40.92;99044.06;5074838;28;20035;-65
2021/07/23 03:12:26;;;;;;;4.03;1.98;;;;;;;23.27;39.77;99039.13;5042057;28;20070;-66
2021/07/23 03:14:52;;;;;;;3.63;2.05;;;;;;;23.21;39.76;99028.97;5091369;28;20497;-66
2021/07/23 03:17:21;;;;;;;4.72;2.35;;;;;;;23.61;38.89;99020.97;5058668;28;20044;-66
2021/07/23 03:19:50;;;;;;;4.78;1.92;;;;;;;23.99;38.43;99022.88;5075791;28;20050;-66
2021/07/23 03:22:18;;;;;;;5.93;2.10;;;;;;;23.36;39.26;99003.59;5075233;28;20436;-66
2021/07/23 03:24:46;;;;;;;5.70;1.95;;;;;;;23.98;38.50;99026.53;5092422;28;20405;-68
2021/07/23 03:27:28;;;;;;;3.28;1.70;;;;;;;23.58;38.87;99021.25;5091761;28;20497;-67
2021/07/23 03:30:11;;;;;;;5.43;2.20;;;;;;;22.96;40.18;99017.75;5091962;28;20044;-65
2021/07/23 03:32:39;;;;;;;5.13;2.00;;;;;;;22.85;40.88;99015.19;5090078;28;20039;-65
2021/07/23 03:35:06;;;;;;;2.67;2.03;;;;;;;22.97;39.93;99019.44;5090249;28;20555;-65
2021/07/23 03:37:37;;;;;;;;;;;;;;;22.62;40.84;99013.59;5090855;28;20044;-65
2021/07/23 03:40:12;;;;;;;5.63;1.90;;;;;;;22.64;41.07;99006.31;5091581;28;19920;-67
2021/07/23 03:42:42;;;;;;;4.65;1.77;;;;;;;22.97;40.15;99006.09;5089916;28;20044;-65
2021/07/23 03:45:17;;;;;;;2.40;1.67;;;;;;;23.73;38.98;99002.03;5057799;28;20055;-67
2021/07/23 03:47:47;;;;;;;2.55;1.58;;;;;;;23.72;38.28;98995.00;5058567;28;20083;-66
2021/07/23 03:50:14;;;;;;;2.22;1.50;;;;;;;24.34;37.30;98995.63;5089038;28;20075;-66
2021/07/23 03:52:55;;;;;;;5.32;2.00;;;;;;;24.13;37.70;98995.75;5075669;28;20048;-66
2021/07/23 03:55:39;;;;;;;2.22;1.75;;;;;;;24.23;37.36;98977.88;5089567;28;20028;-66
2021/07/23 03:58:06;;;;;;;1.83;1.73;;;;;;;25.67;35.13;98997.19;5090533;28;20172;-66
2021/07/23 04:00:34;;;;;;;10.35;1.70;;;;;;;25.64;34.55;99005.47;5072296;28;20040;-65
2021/07/23 04:03:00;;;;;;;16.08;12.27;;;;;;;24.72;35.98;98989.38;5089138;28;20504;-68
2021/07/23 04:05:28;;;;;;;17.70;11.48;;;;;;;25.26;35.40;98993.97;5091326;28;20511;-67
2021/07/23 04:07:57;;;;;;;3.53;2.00;;;;;;;25.07;35.82;98993.22;5089363;28;20040;-65
2021/07/23 04:10:25;;;;;;;5.57;2.13;;;;;;;25.47;34.94;98984.88;5092090;28;20065;-65
2021/07/23 04:12:53;;;;;;;2.33;1.75;;;;;;;24.83;36.15;98975.81;5071825;28;20047;-66
2021/07/23 04:15:20;;;;;;;5.05;2.20;;;;;;;24.68;36.02;98969.25;5089226;28;20044;-67
2021/07/23 04:18:08;;;;;;;4.68;1.85;;;;;;;25.06;35.83;98980.84;5089589;28;20561;-65
2021/07/23 04:20:36;;;;;;;3.55;1.75;;;;;;;25.28;35.30;98969.75;5089044;28;20130;-67
2021/07/23 04:23:03;;;;;;;4.22;1.60;;;;;;;24.39;37.07;98982.66;5091323;28;20040;-64
2021/07/23 04:25:30;;;;;;;23.42;3.63;;;;;;;23.59;38.99;98977.56;5055913;28;20097;-66
2021/07/23 04:27:56;;;;;;;3.75;1.40;;;;;;;23.07;40.45;98979.50;5090908;28;20052;-68
2021/07/23 04:30:34;;;;;;;2.35;1.60;;;;;;;22.64;41.75;98974.34;5089453;28;20040;-66
2021/07/23 04:33:16;;;;;;;4.93;1.30;;;;;;;23.02;40.76;98974.53;5089198;28;20062;-65
2021/07/23 04:35:53;;;;;;;4.13;1.55;;;;;;;23.70;39.28;98958.75;5072140;28;20055;-66
2021/07/23 04:38:21;;;;;;;4.65;1.80;;;;;;;23.08;40.89;98974.03;5070198;28;20056;-66
2021/07/23 04:40:49;;;;;;;3.95;1.70;;;;;;;23.19;40.59;98974.91;5087202;28;20036;-64
2021/07/23 04:43:24;;;;;;;4.68;1.77;;;;;;;22.87;41.33;98975.03;5055729;28;20052;-66
2021/07/23 04:45:53;;;;;;;4.03;1.95;;;;;;;22.34;42.40;98972.47;5086619;28;20056;-65
2021/07/23 04:48:19;;;;;;;4.65;1.50;;;;;;;21.80;43.78;98968.94;5088532;28;20417;-66
2021/07/23 04:51:07;;;;;;;3.35;1.80;;;;;;;21.70;44.31;98961.81;5088634;28;20064;-65
2021/07/23 04:53:48;;;;;;;41.67;29.77;;;;;;;21.53;44.64;98957.84;5088362;28;20086;-67
2021/07/23 04:56:36;;;;;;;19.98;13.05;;;;;;;21.40;45.92;98955.34;5083968;28;20052;-65
2021/07/23 04:59:02;;;;;;;4.25;2.50;;;;;;;21.24;46.10;98954.91;5071413;28;20485;-66
2021/07/23 05:01:28;;;;;;;2.83;1.98;;;;;;;20.97;46.72;98957.94;5071435;28;20044;-65
2021/07/23 05:03:55;;;;;;;7.93;2.78;;;;;;;20.99;47.03;98942.69;5089767;28;20493;-66
2021/07/23 05:06:21;;;;;;;5.82;2.03;;;;;;;20.79;47.58;98959.34;5087415;28;20076;-66
2021/07/23 05:08:48;;;;;;;3.15;1.80;;;;;;;20.81;47.63;98958.31;5054912;28;20036;-66
2021/07/23 05:11:14;;;;;;;5.25;2.90;;;;;;;20.76;47.72;98946.31;5038263;28;20036;-65
2021/07/23 05:13:44;;;;;;;6.18;2.13;;;;;;;20.60;48.34;98950.16;5072645;28;20048;-66
2021/07/23 05:16:10;;;;;;;3.53;2.05;;;;;;;20.77;48.17;98948.00;5090829;28;20417;-66
2021/07/23 05:18:38;;;;;;;6.70;2.20;;;;;;;20.56;48.60;98927.47;5090200;28;20069;-67
2021/07/23 05:21:05;;;;;;;5.75;2.08;;;;;;;20.48;48.59;98945.81;5072494;28;20043;-66
2021/07/23 05:23:32;;;;;;;7.03;1.80;;;;;;;20.72;48.40;98942.19;5087111;28;20442;-66
2021/07/23 05:25:58;;;;;;;3.08;1.70;;;;;;;20.78;47.95;98923.97;5087548;28;20090;-66
2021/07/23 05:28:26;;;;;;;2.35;2.13;;;;;;;21.73;45.91;98935.81;5088699;28;20032;-67
2021/07/23 05:30:51;;;;;;;4.18;2.42;;;;;;;23.03;42.73;98930.88;5088894;28;20040;-66
2021/07/23 05:33:17;;;;;;;3.17;2.25;;;;;;;24.02;40.01;98921.09;5070363;28;20044;-67
2021/07/23 05:35:44;;;;;;;7.43;1.90;;;;;;;24.43;38.84;98924.41;5088612;28;20055;-67
2021/07/23 05:38:14;;;;;;;4.55;2.50;;;;;;;25.57;36.64;98924.91;5054574;28;20067;-67
2021/07/23 05:40:41;;;;;;;6.78;2.00;;;;;;;25.38;36.78;98914.31;5087672;28;20044;-67
2021/07/23 05:43:08;;;;;;;4.47;2.78;;;;;;;24.96;37.59;98904.09;5087784;28;20040;-65
2021/07/23 05:45:38;;;;;;;9.45;5.15;;;;;;;24.19;39.07;98901.66;5086138;28;20063;-69
2021/07/23 05:48:03;;;;;;;12.68;6.45;;;;;;;23.96;39.72;98905.63;5086485;28;20044;-66
2021/07/23 05:50:29;;;;;;;4.03;2.65;;;;;;;23.82;39.71;98904.22;5087154;28;20052;-66
2021/07/23 05:52:55;;;;;;;2.83;2.03;;;;;;;23.66;40.00;98901.25;5089819;28;20421;-67
2021/07/23 05:55:22;;;;;;;4.22;1.80;;;;;;;24.06;39.28;98903.78;5036925;28;20496;-67
2021/07/23 05:57:48;;;;;;;4.97;2.00;;;;;;;24.85;37.55;98898.94;5088019;28;20040;-66
2021/07/23 06:00:14;;;;;;;4.28;2.67;;;;;;;25.54;36.64;98895.75;5069825;28;20050;-66
2021/07/23 06:02:41;;;;;;;8.35;2.67;;;;;;;26.32;35.06;98892.41;5088605;28;20509;-65
2021/07/23 06:05:07;;;;;;;5.75;2.30;;;;;;;27.02;33.48;98894.00;5069001;28;20553;-66
2021/07/23 06:07:33;;;;;;;7.55;1.50;;;;;;;25.76;35.64;98888.25;5088737;28;20040;-65
2021/07/23 06:09:59;;;;;;;7.88;1.77;;;;;;;25.79;35.85;98893.31;5070349;28;20101;-67
2021/07/23 06:12:25;;;;;;;5.78;1.45;;;;;;;25.36;36.91;98868.13;5089853;28;20400;-66
2021/07/23 06:14:50;;;;;;;7.90;1.65;;;;;;;24.83;37.47;98852.78;5089552;28;20086;-66
2021/07/23 06:17:16;;;;;;;2.90;1.27;;;;;;;24.07;38.36;98854.69;5088731;28;20097;-67
2021/07/23 06:19:42;;;;;;;4.20;1.45;;;;;;;24.83;36.67;98868.81;5088993;28;20047;-67
2021/07/23 06:22:07;;;;;;;5.57;2.78;;;;;;;24.86;36.67;98854.31;5087601;28;20085;-65
2021/07/23 06:24:33;;;;;;;4.28;2.13;;;;;;;25.78;35.23;98864.84;5087857;28;20036;-67
2021/07/23 06:26:59;;;;;;;2.47;1.85;;;;;;;26.05;34.18;98861.22;5088436;28;20096;-66
2021/07/23 06:29:26;;;;;;;4.00;1.30;;;;;;;26.10;34.09;98857.06;5068866;28;20036;-66
2021/07/23 06:31:56;;;;;;;3.92;1.45;;;;;;;26.76;32.82;98856.47;5085431;28;20043;-67
2021/07/23 06:34:22;;;;;;;4.68;1.70;;;;;;;27.33;32.12;98858.50;5085337;28;20055;-66
2021/07/23 06:36:48;;;;;;;5.50;1.90;;;;;;;28.41;30.73;98866.31;5087866;28;20385;-66
2021/07/23 06:39:13;;;;;;;3.47;1.60;;;;;;;28.70;29.87;98857.63;5091444;28;20535;-65
2021/07/23 06:41:39;;;;;;;1.60;1.50;;;;;;;28.62;29.56;98856.81;5089651;28;20569;-67
2021/07/23 06:44:05;;;;;;;3.42;1.50;;;;;;;29.13;28.63;98850.06;5090194;28;20586;-66
2021/07/23 06:46:31;;;;;;;3.92;1.00;;;;;;;29.46;27.68;98844.50;5091367;28;20042;-66
2021/07/23 06:48:57;;;;;;;6.57;1.27;;;;;;;29.89;27.31;98854.59;5088235;28;20073;-68
2021/07/23 06:51:22;;;;;;;3.63;1.80;;;;;;;30.04;27.44;98860.06;5089831;28;20076;-66
2021/07/23 06:53:48;;;;;;;4.03;0.90;;;;;;;28.22;30.29;98849.63;5088884;28;20043;-67
2021/07/23 06:56:14;;;;;;;4.65;0.90;;;;;;;27.27;32.10;98833.16;5089400;28;20032;-67
2021/07/23 06:58:40;;;;;;;3.63;2.03;;;;;;;26.54;33.06;98846.28;5090143;28;20540;-66
2021/07/23 07:01:07;;;;;;;11.80;1.95;;;;;;;26.83;32.44;98844.09;5090667;28;20036;-66
2021/07/23 07:03:33;;;;;;;3.33;1.52;;;;;;;27.83;30.70;98845.00;5090406;28;20101;-67
2021/07/23 07:05:59;;;;;;;4.07;1.35;;;;;;;27.58;31.36;98835.22;5090687;28;20353;-69
2021/07/23 07:08:25;;;;;;;10.73;1.98;;;;;;;28.13;30.41;98838.91;5088325;28;20047;-69
2021/07/23 07:10:51;;;;;;;6.22;1.60;;;;;;;30.13;27.72;98844.63;5089288;28;20521;-67
2021/07/23 07:13:16;;;;;;;1.75;1.35;;;;;;;30.46;27.21;98832.47;5090091;28;20028;-66
2021/07/23 07:15:42;;;;;;;3.50;1.70;;;;;;;29.37;28.25;98825.66;5092393;28;20064;-66
2021/07/23 07:18:08;;;;;;;10.75;2.22;;;;;;;28.97;29.19;98825.88;5091891;28;20046;-67
2021/07/23 07:20:34;;;;;;;8.35;1.67;;;;;;;28.17;30.48;98828.63;5091500;28;20077;-68
2021/07/23 07:23:00;;;;;;;7.90;2.03;;;;;;;28.75;29.27;98836.41;5091561;28;20046;-67
2021/07/23 07:25:31;;;;;;;6.38;1.45;;;;;;;28.23;30.40;98824.41;5089661;28;20130;-68
2021/07/23 07:27:57;;;;;;;9.25;1.73;;;;;;;29.31;28.54;98818.28;5091027;28;20520;-66
2021/07/23 07:30:23;;;;;;;8.38;1.92;;;;;;;30.19;27.44;98822.31;5090966;28;20044;-65
2021/07/23 07:32:49;;;;;;;10.68;1.55;;;;;;;29.74;28.20;98824.06;5090373;28;20040;-68
2021/07/23 07:35:16;;;;;;;2.80;1.48;;;;;;;29.19;28.87;98816.19;5090230;28;20048;-67
2021/07/23 07:37:42;;;;;;;4.65;1.45;;;;;;;30.02;27.50;98798.22;5073777;28;20055;-65
2021/07/23 07:40:08;;;;;;;21.92;16.33;;;;;;;29.45;28.29;98802.41;5050914;28;20044;-65
2021/07/23 07:42:37;;;;;;;8.48;1.58;;;;;;;28.50;30.00;98804.38;5067998;28;20049;-68
2021/07/23 07:45:05;;;;;;;3.25;1.80;;;;;;;28.62;29.38;98798.44;5067050;28;20040;-66
2021/07/23 07:47:31;;;;;;;5.63;1.27;;;;;;;27.53;31.44;98804.31;5066469;28;20559;-68
2021/07/23 07:49:57;;;;;;;2.95;1.20;;;;;;;26.49;33.64;98800.34;5067685;28;20045;-69
2021/07/23 07:52:22;;;;;;;5.15;1.42;;;;;;;27.13;32.75;98806.94;5069942;28;20044;-67
2021/07/23 07:54:49;;;;;;;4.53;1.50;;;;;;;26.69;33.56;98807.13;5069317;28;20050;-67
2021/07/23 07:57:15;;;;;;;9.50;1.50;;;;;;;26.71;33.67;98796.22;5067891;28;20048;-68
2021/07/23 07:59:41;;;;;;;6.72;1.98;;;;;;;27.14;33.10;98797.88;5069012;28;20055;-68
2021/07/23 08:02:11;;;;;;;6.18;2.10;;;;;;;27.63;32.14;98797.97;5066780;28;20041;-68
2021/07/23 08:04:38;;;;;;;4.57;1.17;;;;;;;26.24;34.71;98791.31;5068182;28;20430;-68
2021/07/23 08:07:07;;;;;;;3.30;1.10;;;;;;;26.34;34.56;98799.25;5068490;28;20141;-66
2021/07/23 08:10:02;;;;;;;5.47;2.17;;;;;;;28.09;31.87;98802.59;5035665;28;20035;-67
2021/07/23 08:12:31;;;;;;;3.45;2.08;;;;;;;28.67;30.65;98782.59;5066604;28;20151;-68
2021/07/23 08:14:58;;;;;;;11.27;3.92;;;;;;;27.97;31.82;98792.38;5068773;28;20059;-68
2021/07/23 08:17:25;;;;;;;26.33;12.85;;;;;;;27.29;33.08;98793.53;5068397;28;20045;-66
2021/07/23 08:19:51;;;;;;;3.03;1.30;;;;;;;27.67;32.44;98796.63;5068282;28;20097;-66
2021/07/23 08:22:17;;;;;;;7.50;1.52;;;;;;;28.36;31.45;98787.13;5067482;28;20051;-67
2021/07/23 08:24:44;;;;;;;6.20;1.38;;;;;;;28.17;31.72;98780.22;5066689;28;20044;-67
2021/07/23 08:27:09;;;;;;;17.45;1.92;;;;;;;27.69;32.30;98765.06;5067636;28;20080;-67
2021/07/23 08:29:35;;;;;;;6.38;1.50;;;;;;;27.52;33.14;98777.63;5068675;28;20133;-68
2021/07/23 08:32:08;;;;;;;10.57;1.00;;;;;;;26.77;34.25;98766.94;5067870;28;20401;-67
2021/07/23 08:34:35;;;;;;;7.65;1.08;;;;;;;26.57;34.16;98760.13;5084251;28;20050;-65
2021/07/23 08:37:01;;;;;;;9.82;1.65;;;;;;;26.46;34.71;98765.78;5050986;28;20203;-67
2021/07/23 08:39:27;;;;;;;5.47;1.10;;;;;;;25.69;36.64;98764.81;5068735;28;20131;-66
2021/07/23 08:41:53;;;;;;;7.47;1.33;;;;;;;25.60;37.09;98745.16;5065132;28;20127;-66
2021/07/23 08:44:18;;;;;;;5.63;1.42;;;;;;;25.48;36.85;98748.25;5079087;28;20539;-66
2021/07/23 08:46:44;;;;;;;3.88;1.35;;;;;;;24.77;38.31;98757.06;5070671;28;20616;-68
2021/07/23 08:49:10;;;;;;;10.07;1.50;;;;;;;24.58;38.52;98751.84;5070739;28;20532;-69
2021/07/23 08:51:36;;;;;;;12.13;1.75;;;;;;;24.57;39.19;98760.88;5087980;28;20044;-70
2021/07/23 08:54:05;;;;;;;5.65;1.45;;;;;;;24.28;39.13;98747.63;5087082;28;20097;-67
2021/07/23 08:56:31;;;;;;;8.13;1.98;;;;;;;23.86;39.99;98733.84;5086731;28;20048;-68
2021/07/23 08:58:56;;;;;;;8.15;1.40;;;;;;;23.59;40.47;98745.28;5086753;28;20036;-68
2021/07/23 09:01:22;;;;;;;8.40;2.47;;;;;;;23.42;41.52;98755.69;5087182;28;20039;-68
2021/07/23 09:03:48;;;;;;;7.93;1.70;;;;;;;23.48;41.47;98756.94;5088162;28;20040;-67
2021/07/23 09:06:18;;;;;;;4.65;1.95;;;;;;;23.49;41.47;98758.63;5054554;28;20040;-69
2021/07/23 09:08:48;;;;;;;2.22;1.60;;;;;;;23.31;42.13;98750.50;5089375;28;20043;-68
2021/07/23 09:11:14;;;;;;;8.43;1.75;;;;;;;23.02;42.74;98745.16;5070296;28;20073;-66
2021/07/23 09:13:40;;;;;;;6.05;1.40;;;;;;;22.92;43.37;98752.31;5089401;28;20049;-66
2021/07/23 09:16:26;;;;;;;2.58;1.30;;;;;;;22.94;43.48;98757.50;5071001;28;20047;-69
2021/07/23 09:19:08;;;;;;;12.98;1.90;;;;;;;22.89;43.37;98757.06;5069602;28;20409;-67
2021/07/23 09:21:37;;;;;;;5.68;1.77;;;;;;;23.01;42.49;98738.13;5086704;28;20123;-69
2021/07/23 09:24:07;;;;;;;18.20;1.95;;;;;;;23.16;42.29;98751.06;5066880;28;20416;-68
2021/07/23 09:26:41;;;;;;;6.10;1.70;;;;;;;23.42;41.28;98745.00;5066816;28;20041;-69
2021/07/23 09:29:08;;;;;;;4.88;1.80;;;;;;;23.53;40.59;98744.00;5066898;28;20029;-68
2021/07/23 09:31:34;;;;;;;8.60;1.70;;;;;;;23.42;40.89;98742.34;5067589;28;20052;-67
2021/07/23 09:34:00;;;;;;;6.50;1.50;;;;;;;23.55;40.15;98731.38;5066516;28;20041;-68
2021/07/23 09:36:27;;;;;;;8.07;1.83;;;;;;;23.66;40.08;98744.56;5049251;28;20124;-70
2021/07/23 09:39:03;;;;;;;11.43;2.17;;;;;;;23.84;39.58;98714.47;5067301;28;20101;-66
2021/07/23 09:41:29;;;;;;;8.60;2.10;;;;;;;24.31;38.27;98724.13;5068569;28;20127;-67
2021/07/23 09:44:02;;;;;;;7.38;2.03;;;;;;;24.40;38.42;98711.69;5066938;28;20412;-67
2021/07/23 09:46:36;;;;;;;5.20;1.80;;;;;;;24.68;37.77;98731.25;5076892;28;20412;-67
2021/07/23 09:49:22;;;;;;;6.72;2.00;;;;;;;24.42;38.01;98714.22;5070604;28;20142;-67
2021/07/23 09:51:49;;;;;;;4.13;1.98;;;;;;;24.20;37.12;98716.28;5035860;28;20043;-69
2021/07/23 09:54:15;;;;;;;13.02;2.38;;;;;;;24.18;37.42;98710.22;5069669;28;20608;-67
2021/07/23 09:56:42;;;;;;;8.15;2.10;;;;;;;23.80;38.09;98716.59;5087393;28;20130;-65
2021/07/23 09:59:15;;;;;;;13.50;2.70;;;;;;;23.60;38.07;98701.59;5068683;28;20547;-72
2021/07/23 10:01:42;;;;;;;12.55;2.22;;;;;;;23.30;39.25;98700.78;5053769;28;20119;-68
2021/07/23 10:04:34;;;;;;;10.38;2.20;;;;;;;23.45;39.44;98709.19;5087030;28;20394;-67
2021/07/23 10:07:10;;;;;;;15.20;7.85;;;;;;;23.42;39.69;98720.13;5083324;28;20052;-66
2021/07/23 10:09:40;;;;;;;6.40;2.28;;;;;;;23.69;39.64;98712.22;5085556;28;20524;-67
2021/07/23 10:12:09;;;;;;;3.92;2.50;;;;;;;24.11;38.66;98695.78;5070968;28;20143;-66
2021/07/23 10:14:46;;;;;;;4.22;1.90;;;;;;;24.43;36.13;98681.16;5074285;28;20048;-67
2021/07/23 10:17:12;;;;;;;22.30;2.97;;;;;;;24.64;33.69;98673.72;5091118;28;20044;-68
2021/07/23 10:19:38;;;;;;;11.55;2.33;;;;;;;25.07;33.19;98693.50;5091027;28;20044;-67
2021/07/23 10:22:04;;;;;;;18.25;2.38;;;;;;;25.01;33.37;98687.78;5092275;28;20062;-69
2021/07/23 10:24:31;;;;;;;27.67;2.50;;;;;;;24.59;33.87;98681.34;5040784;28;20096;-69
2021/07/23 10:26:58;;;;;;;20.13;2.53;;;;;;;24.58;34.06;98687.69;5091438;28;20127;-75
2021/07/23 10:29:44;;;;;;;20.92;2.95;;;;;;;24.54;33.80;98681.78;5089393;28;20043;-75
2021/07/23 10:32:33;;;;;;;14.23;2.10;;;;;;;24.85;32.80;98676.91;5092591;28;20484;-73
2021/07/23 10:35:25;;;;;;;17.25;2.90;;;;;;;25.05;32.33;98671.41;5091587;28;20544;-74
2021/07/23 10:37:52;;;;;;;17.98;2.88;;;;;;;25.08;31.89;98665.75;5090663;28;20032;-75
2021/07/23 10:40:19;;;;;;;23.08;2.42;;;;;;;25.05;30.83;98674.94;5090360;28;20122;-72
2021/07/23 10:42:56;;;;;;;34.33;3.20;;;;;;;24.83;31.13;98670.88;5074493;28;20131;-75
2021/07/23 10:45:22;;;;;;;17.08;2.70;;;;;;;25.07;30.97;98672.09;5072938;28;20467;-75
2021/07/23 10:47:51;;;;;;;21.83;2.10;;;;;;;25.18;29.89;98669.19;5056971;28;20062;-75
2021/07/23 10:50:25;;;;;;;24.83;2.35;;;;;;;25.18;29.79;98653.97;5068907;28;20110;-73
2021/07/23 10:52:54;;;;;;;17.05;2.75;;;;;;;25.14;29.59;98673.16;5067936;28;20521;-74
2021/07/23 10:55:24;;;;;;;7.00;1.73;;;;;;;25.26;30.01;98670.06;5035655;28;20506;-77
2021/07/23 10:58:05;;;;;;;16.80;2.60;;;;;;;25.34;30.00;98675.50;5051103;28;20588;-75
2021/07/23 11:00:58;;;;;;;20.73;2.15;;;;;;;25.27;30.30;98677.13;5069128;28;20214;-76
2021/07/23 11:03:37;;;;;;;23.60;2.42;;;;;;;25.02;30.79;98643.13;5069228;28;20041;-76
2021/07/23 11:06:14;;;;;;;16.63;2.20;;;;;;;25.15;30.77;98686.38;5068983;28;20089;-75
2021/07/23 11:08:51;;;;;;;17.55;2.50;;;;;;;25.38;30.15;98664.50;5068636;28;20052;-75
2021/07/23 11:11:17;;;;;;;10.90;2.30;;;;;;;25.59;29.71;98668.47;5070022;28;20463;-74
2021/07/23 11:13:44;;;;;;;8.30;1.90;;;;;;;25.52;29.89;98658.56;5052222;28;20040;-74
2021/07/23 11:16:13;;;;;;;11.43;1.95;;;;;;;25.37;29.55;98689.59;5069210;28;20503;-74
2021/07/23 11:18:59;;;;;;;9.48;1.90;;;;;;;24.95;30.88;98707.09;5051075;28;20051;-75
2021/07/23 11:21:36;;;;;;;12.65;2.47;;;;;;;24.57;33.95;98704.72;5069530;28;20485;-76
2021/07/23 11:24:09;;;;;;;27.65;2.88;;;;;;;24.10;36.86;98728.84;5068795;28;20040;-75
2021/07/23 11:26:34;;;;;;;25.17;2.83;;;;;;;23.63;38.83;98720.81;5069999;28;20045;-73
2021/07/23 11:29:00;;;;;;;17.33;2.53;;;;;;;23.13;40.97;98753.03;5035774;28;20056;-76
2021/07/23 11:31:32;;;;;;;15.95;2.60;;;;;;;22.69;42.79;98756.19;5069550;28;20441;-74
2021/07/23 11:34:17;;;;;;;13.90;2.38;;;;;;;22.44;43.67;98753.03;5036661;28;20515;-77
2021/07/23 11:36:43;;;;;;;10.40;2.70;;;;;;;22.29;44.23;98756.19;5069690;28;20058;-76
2021/07/23 11:39:09;;;;;;;7.90;2.97;;;;;;;22.36;44.40;98757.34;5067743;28;20131;-74
2021/07/23 11:41:35;;;;;;;16.90;2.53;;;;;;;22.32;44.19;98764.78;5051241;28;20055;-74